sensor_id;sensor_type;location;lat;lon;timestamp;temperature;humidity
1021;DHT22;499;42.648;23.270;2023-03-23T00:01:16;5.10;96.10
1021;DHT22;499;42.648;23.270;2023-03-23T00:04:01;5.10;95.70
1021;DHT22;499;42.648;23.270;2023-03-23T00:06:43;5.10;95.90
1021;DHT22;499;42.648;23.270;2023-03-23T00:09:24;5.20;95.50
1021;DHT22;499;42.648;23.270;2023-03-23T00:12:10;5.20;95.40
1021;DHT22;499;42.648;23.270;2023-03-23T00:15:03;5.20;94.70
1021;DHT22;499;42.648;23.270;2023-03-23T00:17:48;5.20;95.10
1021;DHT22;499;42.648;23.270;2023-03-23T00:20:32;5.20;93.90
1021;DHT22;499;42.648;23.270;2023-03-23T00:23:11;5.20;93.70
1021;DHT22;499;42.648;23.270;2023-03-23T00:25:51;5.30;93.70
1021;DHT22;499;42.648;23.270;2023-03-23T00:28:37;5.30;93.30
1021;DHT22;499;42.648;23.270;2023-03-23T00:31:20;5.30;93.00
1021;DHT22;499;42.648;23.270;2023-03-23T00:34:08;5.20;92.60
1021;DHT22;499;42.648;23.270;2023-03-23T00:37:01;5.10;93.10
1021;DHT22;499;42.648;23.270;2023-03-23T00:39:35;5.10;94.60
1021;DHT22;499;42.648;23.270;2023-03-23T00:42:19;5.10;95.00
1021;DHT22;499;42.648;23.270;2023-03-23T00:45:13;5.10;95.90
1021;DHT22;499;42.648;23.270;2023-03-23T00:47:46;5.10;95.80
1021;DHT22;499;42.648;23.270;2023-03-23T00:50:30;5.10;96.10
1021;DHT22;499;42.648;23.270;2023-03-23T00:53:09;5.10;96.30
1021;DHT22;499;42.648;23.270;2023-03-23T00:55:51;5.10;97.70
1021;DHT22;499;42.648;23.270;2023-03-23T00:58:47;5.10;97.00
1021;DHT22;499;42.648;23.270;2023-03-23T01:01:27;5.20;97.40
1021;DHT22;499;42.648;23.270;2023-03-23T01:04:22;5.10;97.00
1021;DHT22;499;42.648;23.270;2023-03-23T01:07:01;5.10;97.90
1021;DHT22;499;42.648;23.270;2023-03-23T01:09:42;5.20;98.50
1021;DHT22;499;42.648;23.270;2023-03-23T01:12:18;5.20;98.40
1021;DHT22;499;42.648;23.270;2023-03-23T01:14:49;5.20;97.80
1021;DHT22;499;42.648;23.270;2023-03-23T01:17:29;5.20;98.30
1021;DHT22;499;42.648;23.270;2023-03-23T01:20:10;5.30;97.50
1021;DHT22;499;42.648;23.270;2023-03-23T01:22:52;5.40;97.20
1021;DHT22;499;42.648;23.270;2023-03-23T01:25:37;5.50;96.80
1021;DHT22;499;42.648;23.270;2023-03-23T01:28:16;5.50;95.70
1021;DHT22;499;42.648;23.270;2023-03-23T01:30:59;5.50;94.30
1021;DHT22;499;42.648;23.270;2023-03-23T01:33:44;5.40;93.60
1021;DHT22;499;42.648;23.270;2023-03-23T01:36:20;5.40;94.50
1021;DHT22;499;42.648;23.270;2023-03-23T01:39:03;5.40;93.20
1021;DHT22;499;42.648;23.270;2023-03-23T01:41:41;5.30;93.60
1021;DHT22;499;42.648;23.270;2023-03-23T01:47:29;5.30;96.00
1021;DHT22;499;42.648;23.270;2023-03-23T01:50:14;5.30;96.00
1021;DHT22;499;42.648;23.270;2023-03-23T01:52:53;5.40;96.30
1021;DHT22;499;42.648;23.270;2023-03-23T01:55:40;5.30;95.90
1021;DHT22;499;42.648;23.270;2023-03-23T01:58:19;5.30;97.10
1021;DHT22;499;42.648;23.270;2023-03-23T02:01:01;5.30;96.60
1021;DHT22;499;42.648;23.270;2023-03-23T02:03:44;5.30;96.00
1021;DHT22;499;42.648;23.270;2023-03-23T02:06:27;5.20;97.30
1021;DHT22;499;42.648;23.270;2023-03-23T02:09:19;5.20;97.90
1021;DHT22;499;42.648;23.270;2023-03-23T02:12:28;5.20;98.50
1021;DHT22;499;42.648;23.270;2023-03-23T02:15:08;5.30;98.60
1021;DHT22;499;42.648;23.270;2023-03-23T02:17:54;5.30;98.20
1021;DHT22;499;42.648;23.270;2023-03-23T02:20:48;5.20;98.30
1021;DHT22;499;42.648;23.270;2023-03-23T02:23:52;5.20;99.00
1021;DHT22;499;42.648;23.270;2023-03-23T02:26:46;5.30;99.90
1021;DHT22;499;42.648;23.270;2023-03-23T02:30:18;5.40;99.90
1021;DHT22;499;42.648;23.270;2023-03-23T02:33:34;5.50;99.90
1021;DHT22;499;42.648;23.270;2023-03-23T02:36:20;5.50;99.90
1021;DHT22;499;42.648;23.270;2023-03-23T02:39:32;5.70;99.90
1021;DHT22;499;42.648;23.270;2023-03-23T02:42:16;5.80;99.90
1021;DHT22;499;42.648;23.270;2023-03-23T02:45:09;5.90;99.90
1021;DHT22;499;42.648;23.270;2023-03-23T02:47:57;5.70;99.50
1021;DHT22;499;42.648;23.270;2023-03-23T02:50:50;5.70;99.90
1021;DHT22;499;42.648;23.270;2023-03-23T02:53:41;5.70;99.90
1021;DHT22;499;42.648;23.270;2023-03-23T02:56:26;5.70;99.90
1021;DHT22;499;42.648;23.270;2023-03-23T02:59:11;5.70;99.90
1021;DHT22;499;42.648;23.270;2023-03-23T03:01:59;5.60;99.80
1021;DHT22;499;42.648;23.270;2023-03-23T03:04:40;5.50;99.10
1021;DHT22;499;42.648;23.270;2023-03-23T03:07:42;5.50;99.70
1021;DHT22;499;42.648;23.270;2023-03-23T03:10:32;5.40;99.80
1021;DHT22;499;42.648;23.270;2023-03-23T03:13:21;5.30;99.90
1021;DHT22;499;42.648;23.270;2023-03-23T03:16:07;5.40;99.90
1021;DHT22;499;42.648;23.270;2023-03-23T03:18:52;5.40;99.90
1021;DHT22;499;42.648;23.270;2023-03-23T03:21:33;5.40;99.90
1021;DHT22;499;42.648;23.270;2023-03-23T03:24:25;5.30;99.30
1021;DHT22;499;42.648;23.270;2023-03-23T03:27:14;5.10;98.80
1021;DHT22;499;42.648;23.270;2023-03-23T03:30:07;5.20;99.90
1021;DHT22;499;42.648;23.270;2023-03-23T03:32:53;5.20;99.90
1021;DHT22;499;42.648;23.270;2023-03-23T03:35:47;5.20;99.90
1021;DHT22;499;42.648;23.270;2023-03-23T03:38:39;5.20;99.90
1021;DHT22;499;42.648;23.270;2023-03-23T03:41:33;5.10;99.10
1021;DHT22;499;42.648;23.270;2023-03-23T03:44:24;5.20;99.90
1021;DHT22;499;42.648;23.270;2023-03-23T03:47:09;5.20;98.00
1021;DHT22;499;42.648;23.270;2023-03-23T03:50:03;5.30;98.60
1021;DHT22;499;42.648;23.270;2023-03-23T03:52:47;5.20;98.40
1021;DHT22;499;42.648;23.270;2023-03-23T03:55:29;5.10;97.30
1021;DHT22;499;42.648;23.270;2023-03-23T03:58:25;5.10;97.00
1021;DHT22;499;42.648;23.270;2023-03-23T04:01:18;4.90;95.70
1021;DHT22;499;42.648;23.270;2023-03-23T04:04:06;5.00;97.50
1021;DHT22;499;42.648;23.270;2023-03-23T04:06:50;5.10;96.60
1021;DHT22;499;42.648;23.270;2023-03-23T04:09:32;5.00;95.00
1021;DHT22;499;42.648;23.270;2023-03-23T04:12:12;4.90;96.10
1021;DHT22;499;42.648;23.270;2023-03-23T04:14:56;4.80;95.40
1021;DHT22;499;42.648;23.270;2023-03-23T04:17:39;4.70;96.00
1021;DHT22;499;42.648;23.270;2023-03-23T04:20:25;4.70;97.00
1021;DHT22;499;42.648;23.270;2023-03-23T04:23:18;4.60;97.60
1021;DHT22;499;42.648;23.270;2023-03-23T04:38:57;4.50;99.90
1021;DHT22;499;42.648;23.270;2023-03-23T04:41:47;4.50;99.90
1021;DHT22;499;42.648;23.270;2023-03-23T04:44:45;4.60;99.90
1021;DHT22;499;42.648;23.270;2023-03-23T04:47:30;4.70;99.90
1021;DHT22;499;42.648;23.270;2023-03-23T04:50:19;4.70;99.90
1021;DHT22;499;42.648;23.270;2023-03-23T04:53:09;4.80;99.90
1021;DHT22;499;42.648;23.270;2023-03-23T04:55:48;4.80;99.90
1021;DHT22;499;42.648;23.270;2023-03-23T04:58:30;4.80;99.90
1021;DHT22;499;42.648;23.270;2023-03-23T05:01:15;4.80;99.90
1021;DHT22;499;42.648;23.270;2023-03-23T05:04:06;4.90;99.90
1021;DHT22;499;42.648;23.270;2023-03-23T05:07:00;5.10;99.90
1021;DHT22;499;42.648;23.270;2023-03-23T05:09:54;5.10;99.90
1021;DHT22;499;42.648;23.270;2023-03-23T05:12:41;5.20;99.90
1021;DHT22;499;42.648;23.270;2023-03-23T05:15:26;5.20;99.90
1021;DHT22;499;42.648;23.270;2023-03-23T05:18:13;5.30;99.90
1021;DHT22;499;42.648;23.270;2023-03-23T05:21:04;5.30;99.90
1021;DHT22;499;42.648;23.270;2023-03-23T05:23:44;5.40;99.90
1021;DHT22;499;42.648;23.270;2023-03-23T05:26:24;5.50;99.90
1021;DHT22;499;42.648;23.270;2023-03-23T05:29:19;5.50;99.90
1021;DHT22;499;42.648;23.270;2023-03-23T05:32:00;5.60;99.90
1021;DHT22;499;42.648;23.270;2023-03-23T05:35:01;5.50;99.90
1021;DHT22;499;42.648;23.270;2023-03-23T05:37:43;5.50;99.90
1021;DHT22;499;42.648;23.270;2023-03-23T05:40:38;5.60;99.90
1021;DHT22;499;42.648;23.270;2023-03-23T05:43:22;5.70;99.90
1021;DHT22;499;42.648;23.270;2023-03-23T05:46:14;5.80;99.90
1021;DHT22;499;42.648;23.270;2023-03-23T05:49:13;5.90;99.90
1021;DHT22;499;42.648;23.270;2023-03-23T05:51:54;5.90;99.10
1021;DHT22;499;42.648;23.270;2023-03-23T05:54:39;5.80;99.40
1021;DHT22;499;42.648;23.270;2023-03-23T05:57:16;5.90;99.90
1021;DHT22;499;42.648;23.270;2023-03-23T05:59:53;6.00;99.90
1021;DHT22;499;42.648;23.270;2023-03-23T06:02:56;6.20;99.90
1021;DHT22;499;42.648;23.270;2023-03-23T06:05:42;6.10;98.30
1021;DHT22;499;42.648;23.270;2023-03-23T06:08:23;6.20;97.50
1021;DHT22;499;42.648;23.270;2023-03-23T06:11:11;6.30;97.20
1021;DHT22;499;42.648;23.270;2023-03-23T06:13:56;6.40;95.70
1021;DHT22;499;42.648;23.270;2023-03-23T06:16:37;6.40;95.20
1021;DHT22;499;42.648;23.270;2023-03-23T06:19:19;6.40;94.80
1021;DHT22;499;42.648;23.270;2023-03-23T06:22:01;6.50;95.20
1021;DHT22;499;42.648;23.270;2023-03-23T06:24:48;6.60;93.70
1021;DHT22;499;42.648;23.270;2023-03-23T06:27:47;6.70;93.00
1021;DHT22;499;42.648;23.270;2023-03-23T06:30:39;6.70;91.80
1021;DHT22;499;42.648;23.270;2023-03-23T06:33:13;6.80;91.10
1021;DHT22;499;42.648;23.270;2023-03-23T06:35:58;6.90;91.30
1021;DHT22;499;42.648;23.270;2023-03-23T06:38:55;7.00;92.10
1021;DHT22;499;42.648;23.270;2023-03-23T06:41:35;7.20;94.00
1021;DHT22;499;42.648;23.270;2023-03-23T06:44:17;7.30;93.50
1021;DHT22;499;42.648;23.270;2023-03-23T06:46:57;7.40;92.60
1021;DHT22;499;42.648;23.270;2023-03-23T06:49:33;7.60;92.20
1021;DHT22;499;42.648;23.270;2023-03-23T06:52:22;7.60;88.90
1021;DHT22;499;42.648;23.270;2023-03-23T06:55:00;7.70;90.20
1021;DHT22;499;42.648;23.270;2023-03-23T06:57:36;7.80;82.90
1021;DHT22;499;42.648;23.270;2023-03-23T07:00:14;7.80;81.40
1021;DHT22;499;42.648;23.270;2023-03-23T07:02:51;7.90;80.70
1021;DHT22;499;42.648;23.270;2023-03-23T07:05:30;7.90;76.90
1021;DHT22;499;42.648;23.270;2023-03-23T07:08:15;7.90;73.30
1021;DHT22;499;42.648;23.270;2023-03-23T07:11:00;7.60;76.60
1021;DHT22;499;42.648;23.270;2023-03-23T07:13:49;7.60;80.20
1021;DHT22;499;42.648;23.270;2023-03-23T07:16:40;7.60;83.70
1021;DHT22;499;42.648;23.270;2023-03-23T07:19:20;7.70;85.90
1021;DHT22;499;42.648;23.270;2023-03-23T07:21:55;7.80;80.10
1021;DHT22;499;42.648;23.270;2023-03-23T07:24:38;7.90;82.60
1021;DHT22;499;42.648;23.270;2023-03-23T07:29:45;8.20;83.20
1021;DHT22;499;42.648;23.270;2023-03-23T07:32:13;8.30;82.00
1021;DHT22;499;42.648;23.270;2023-03-23T07:34:40;8.30;74.70
1021;DHT22;499;42.648;23.270;2023-03-23T07:37:08;8.30;78.70
1021;DHT22;499;42.648;23.270;2023-03-23T07:39:37;8.50;80.50
1021;DHT22;499;42.648;23.270;2023-03-23T07:42:04;8.60;80.90
1021;DHT22;499;42.648;23.270;2023-03-23T07:44:33;8.70;74.20
1021;DHT22;499;42.648;23.270;2023-03-23T07:47:00;8.80;77.60
1021;DHT22;499;42.648;23.270;2023-03-23T07:49:27;9.00;69.90
1021;DHT22;499;42.648;23.270;2023-03-23T07:51:56;9.10;63.70
1021;DHT22;499;42.648;23.270;2023-03-23T07:54:23;9.20;59.50
1021;DHT22;499;42.648;23.270;2023-03-23T07:56:52;9.20;54.50
1021;DHT22;499;42.648;23.270;2023-03-23T07:59:20;9.30;55.50
1021;DHT22;499;42.648;23.270;2023-03-23T08:01:47;9.30;56.30
1021;DHT22;499;42.648;23.270;2023-03-23T08:04:14;9.40;56.20
1021;DHT22;499;42.648;23.270;2023-03-23T08:06:41;9.40;56.10
1021;DHT22;499;42.648;23.270;2023-03-23T08:09:08;9.60;53.30
1021;DHT22;499;42.648;23.270;2023-03-23T08:11:35;9.70;49.80
1021;DHT22;499;42.648;23.270;2023-03-23T08:14:05;9.60;49.60
1021;DHT22;499;42.648;23.270;2023-03-23T08:16:32;9.70;51.00
1021;DHT22;499;42.648;23.270;2023-03-23T08:19:00;9.70;46.60
1021;DHT22;499;42.648;23.270;2023-03-23T08:21:27;9.80;48.20
1021;DHT22;499;42.648;23.270;2023-03-23T08:23:55;10.00;49.60
1021;DHT22;499;42.648;23.270;2023-03-23T08:26:22;10.10;49.00
1021;DHT22;499;42.648;23.270;2023-03-23T08:28:49;10.20;43.90
1021;DHT22;499;42.648;23.270;2023-03-23T08:31:17;10.20;45.80
1021;DHT22;499;42.648;23.270;2023-03-23T08:33:44;10.40;44.90
1021;DHT22;499;42.648;23.270;2023-03-23T08:36:12;10.50;43.20
1021;DHT22;499;42.648;23.270;2023-03-23T08:38:39;10.50;31.50
1021;DHT22;499;42.648;23.270;2023-03-23T08:41:07;10.60;33.40
1021;DHT22;499;42.648;23.270;2023-03-23T08:43:35;10.80;31.70
1021;DHT22;499;42.648;23.270;2023-03-23T08:46:03;10.70;31.90
1021;DHT22;499;42.648;23.270;2023-03-23T08:48:36;10.80;35.50
1021;DHT22;499;42.648;23.270;2023-03-23T08:51:05;10.90;31.70
1021;DHT22;499;42.648;23.270;2023-03-23T08:53:33;11.10;29.70
1021;DHT22;499;42.648;23.270;2023-03-23T08:56:04;11.40;28.10
1021;DHT22;499;42.648;23.270;2023-03-23T08:58:31;11.60;27.00
1021;DHT22;499;42.648;23.270;2023-03-23T09:00:59;11.70;25.60
1021;DHT22;499;42.648;23.270;2023-03-23T09:03:26;11.70;26.40
1021;DHT22;499;42.648;23.270;2023-03-23T09:05:58;11.80;25.40
1021;DHT22;499;42.648;23.270;2023-03-23T09:08:25;11.80;25.00
1021;DHT22;499;42.648;23.270;2023-03-23T09:10:54;11.80;24.10
1021;DHT22;499;42.648;23.270;2023-03-23T09:13:22;11.90;24.60
1021;DHT22;499;42.648;23.270;2023-03-23T09:15:49;11.90;25.30
1021;DHT22;499;42.648;23.270;2023-03-23T09:18:16;12.10;24.00
1021;DHT22;499;42.648;23.270;2023-03-23T09:20:44;12.00;23.00
1021;DHT22;499;42.648;23.270;2023-03-23T09:23:13;11.90;24.60
1021;DHT22;499;42.648;23.270;2023-03-23T09:25:40;12.00;24.20
1021;DHT22;499;42.648;23.270;2023-03-23T09:28:07;12.10;24.70
1021;DHT22;499;42.648;23.270;2023-03-23T09:30:36;12.20;23.50
1021;DHT22;499;42.648;23.270;2023-03-23T09:33:05;12.30;24.80
1021;DHT22;499;42.648;23.270;2023-03-23T09:35:32;12.40;22.40
1021;DHT22;499;42.648;23.270;2023-03-23T09:38:01;12.40;21.50
1021;DHT22;499;42.648;23.270;2023-03-23T09:40:35;12.30;22.80
1021;DHT22;499;42.648;23.270;2023-03-23T09:43:29;12.30;23.20
1021;DHT22;499;42.648;23.270;2023-03-23T09:46:08;12.50;22.20
1021;DHT22;499;42.648;23.270;2023-03-23T09:48:47;12.50;21.10
1021;DHT22;499;42.648;23.270;2023-03-23T09:51:23;12.40;22.90
1021;DHT22;499;42.648;23.270;2023-03-23T09:53:55;12.30;22.50
1021;DHT22;499;42.648;23.270;2023-03-23T09:56:27;12.50;23.60
1021;DHT22;499;42.648;23.270;2023-03-23T09:58:59;12.70;22.60
1021;DHT22;499;42.648;23.270;2023-03-23T10:01:32;12.80;21.30
1021;DHT22;499;42.648;23.270;2023-03-23T10:04:05;12.60;21.20
1021;DHT22;499;42.648;23.270;2023-03-23T10:06:34;12.60;21.20
1021;DHT22;499;42.648;23.270;2023-03-23T10:09:03;12.60;20.80
1021;DHT22;499;42.648;23.270;2023-03-23T10:11:46;12.80;21.30
1021;DHT22;499;42.648;23.270;2023-03-23T10:14:24;12.90;21.30
1021;DHT22;499;42.648;23.270;2023-03-23T10:17:00;12.90;21.30
1021;DHT22;499;42.648;23.270;2023-03-23T10:19:34;12.60;19.30
1021;DHT22;499;42.648;23.270;2023-03-23T10:22:04;12.80;20.60
1021;DHT22;499;42.648;23.270;2023-03-23T10:24:35;12.80;20.30
1021;DHT22;499;42.648;23.270;2023-03-23T10:27:17;12.80;21.30
1021;DHT22;499;42.648;23.270;2023-03-23T10:29:50;12.80;20.90
1021;DHT22;499;42.648;23.270;2023-03-23T10:32:34;12.90;20.80
1021;DHT22;499;42.648;23.270;2023-03-23T10:35:06;12.70;21.20
1021;DHT22;499;42.648;23.270;2023-03-23T10:37:37;12.80;21.30
1021;DHT22;499;42.648;23.270;2023-03-23T10:40:11;12.90;20.30
1021;DHT22;499;42.648;23.270;2023-03-23T10:42:41;13.00;20.20
1021;DHT22;499;42.648;23.270;2023-03-23T10:45:16;13.10;21.10
1021;DHT22;499;42.648;23.270;2023-03-23T10:47:49;13.10;19.20
1021;DHT22;499;42.648;23.270;2023-03-23T10:50:22;13.10;20.70
1021;DHT22;499;42.648;23.270;2023-03-23T10:52:51;13.20;18.90
1021;DHT22;499;42.648;23.270;2023-03-23T10:55:20;13.20;20.60
1021;DHT22;499;42.648;23.270;2023-03-23T10:58:01;13.20;18.60
1021;DHT22;499;42.648;23.270;2023-03-23T11:00:30;13.10;20.00
1021;DHT22;499;42.648;23.270;2023-03-23T11:03:03;13.20;18.80
1021;DHT22;499;42.648;23.270;2023-03-23T11:05:37;13.20;19.30
1021;DHT22;499;42.648;23.270;2023-03-23T11:08:11;13.10;19.30
1021;DHT22;499;42.648;23.270;2023-03-23T11:10:42;12.90;18.50
1021;DHT22;499;42.648;23.270;2023-03-23T11:13:16;12.70;19.70
1021;DHT22;499;42.648;23.270;2023-03-23T11:15:46;12.80;18.80
1021;DHT22;499;42.648;23.270;2023-03-23T11:18:19;12.90;18.80
1021;DHT22;499;42.648;23.270;2023-03-23T11:20:50;13.00;19.40
1021;DHT22;499;42.648;23.270;2023-03-23T11:23:21;13.10;20.60
1021;DHT22;499;42.648;23.270;2023-03-23T11:25:58;13.10;19.70
1021;DHT22;499;42.648;23.270;2023-03-23T11:28:30;13.10;17.70
1021;DHT22;499;42.648;23.270;2023-03-23T11:30:59;13.20;18.80
1021;DHT22;499;42.648;23.270;2023-03-23T11:33:30;13.20;18.20
1021;DHT22;499;42.648;23.270;2023-03-23T11:35:57;13.20;17.60
1021;DHT22;499;42.648;23.270;2023-03-23T11:38:25;13.30;18.70
1021;DHT22;499;42.648;23.270;2023-03-23T11:40:54;13.30;18.40
1021;DHT22;499;42.648;23.270;2023-03-23T11:43:22;13.40;19.20
1021;DHT22;499;42.648;23.270;2023-03-23T11:45:57;13.50;18.90
1021;DHT22;499;42.648;23.270;2023-03-23T11:48:31;13.40;18.60
1021;DHT22;499;42.648;23.270;2023-03-23T11:51:02;13.40;18.40
1021;DHT22;499;42.648;23.270;2023-03-23T11:53:37;13.40;17.80
1021;DHT22;499;42.648;23.270;2023-03-23T11:56:12;13.40;18.10
1021;DHT22;499;42.648;23.270;2023-03-23T11:58:40;13.40;17.50
1021;DHT22;499;42.648;23.270;2023-03-23T12:01:16;13.50;17.80
1021;DHT22;499;42.648;23.270;2023-03-23T12:07:02;13.60;17.90
1021;DHT22;499;42.648;23.270;2023-03-23T12:09:43;13.70;18.00
1021;DHT22;499;42.648;23.270;2023-03-23T12:12:16;13.70;17.90
1021;DHT22;499;42.648;23.270;2023-03-23T12:14:51;13.60;17.20
1021;DHT22;499;42.648;23.270;2023-03-23T12:17:28;13.60;17.40
1021;DHT22;499;42.648;23.270;2023-03-23T12:20:06;13.60;16.00
1021;DHT22;499;42.648;23.270;2023-03-23T12:22:52;13.50;16.70
1021;DHT22;499;42.648;23.270;2023-03-23T12:25:43;13.60;17.90
1021;DHT22;499;42.648;23.270;2023-03-23T12:28:22;13.70;17.60
1021;DHT22;499;42.648;23.270;2023-03-23T12:30:57;13.80;17.50
1021;DHT22;499;42.648;23.270;2023-03-23T12:33:35;13.90;15.90
1021;DHT22;499;42.648;23.270;2023-03-23T12:36:17;13.90;15.80
1021;DHT22;499;42.648;23.270;2023-03-23T12:39:02;14.00;15.60
1021;DHT22;499;42.648;23.270;2023-03-23T12:41:36;13.90;16.40
1021;DHT22;499;42.648;23.270;2023-03-23T12:44:07;14.00;16.30
1021;DHT22;499;42.648;23.270;2023-03-23T12:46:51;14.00;16.30
1021;DHT22;499;42.648;23.270;2023-03-23T12:49:24;13.90;15.60
1021;DHT22;499;42.648;23.270;2023-03-23T12:51:58;14.00;16.50
1021;DHT22;499;42.648;23.270;2023-03-23T12:54:31;14.00;15.50
1021;DHT22;499;42.648;23.270;2023-03-23T12:57:02;14.00;16.40
1021;DHT22;499;42.648;23.270;2023-03-23T12:59:39;13.90;15.60
1021;DHT22;499;42.648;23.270;2023-03-23T13:02:16;14.00;16.60
1021;DHT22;499;42.648;23.270;2023-03-23T13:04:51;14.30;17.00
1021;DHT22;499;42.648;23.270;2023-03-23T13:07:23;14.30;16.40
1021;DHT22;499;42.648;23.270;2023-03-23T13:09:58;14.20;16.20
1021;DHT22;499;42.648;23.270;2023-03-23T13:12:30;14.20;16.10
1021;DHT22;499;42.648;23.270;2023-03-23T13:15:04;14.30;16.60
1021;DHT22;499;42.648;23.270;2023-03-23T13:17:43;14.40;16.20
1021;DHT22;499;42.648;23.270;2023-03-23T13:20:45;14.40;14.40
1021;DHT22;499;42.648;23.270;2023-03-23T13:23:17;14.40;16.20
1021;DHT22;499;42.648;23.270;2023-03-23T13:25:52;14.40;14.40
1021;DHT22;499;42.648;23.270;2023-03-23T13:28:23;14.40;14.40
1021;DHT22;499;42.648;23.270;2023-03-23T13:30:56;14.20;14.30
1021;DHT22;499;42.648;23.270;2023-03-23T13:33:24;14.20;14.80
1021;DHT22;499;42.648;23.270;2023-03-23T13:35:53;14.30;14.40
1021;DHT22;499;42.648;23.270;2023-03-23T13:38:21;14.30;14.40
1021;DHT22;499;42.648;23.270;2023-03-23T13:40:51;14.40;14.50
1021;DHT22;499;42.648;23.270;2023-03-23T13:43:27;14.60;14.60
1021;DHT22;499;42.648;23.270;2023-03-23T13:45:54;14.70;15.10
1021;DHT22;499;42.648;23.270;2023-03-23T13:48:24;14.70;15.40
1021;DHT22;499;42.648;23.270;2023-03-23T13:50:55;14.80;14.70
1021;DHT22;499;42.648;23.270;2023-03-23T13:53:26;14.80;14.70
1021;DHT22;499;42.648;23.270;2023-03-23T13:56:16;14.70;14.90
1021;DHT22;499;42.648;23.270;2023-03-23T13:58:46;14.50;14.90
1021;DHT22;499;42.648;23.270;2023-03-23T14:01:16;14.50;16.10
1021;DHT22;499;42.648;23.270;2023-03-23T14:03:46;14.40;16.90
1021;DHT22;499;42.648;23.270;2023-03-23T14:06:20;14.50;15.10
1021;DHT22;499;42.648;23.270;2023-03-23T14:08:50;14.50;14.80
1021;DHT22;499;42.648;23.270;2023-03-23T14:11:22;14.50;14.50
1021;DHT22;499;42.648;23.270;2023-03-23T14:14:04;14.40;15.80
1021;DHT22;499;42.648;23.270;2023-03-23T14:16:36;14.30;15.90
1021;DHT22;499;42.648;23.270;2023-03-23T14:19:13;14.30;15.10
1021;DHT22;499;42.648;23.270;2023-03-23T14:21:48;14.40;15.50
1021;DHT22;499;42.648;23.270;2023-03-23T14:24:17;14.40;15.20
1021;DHT22;499;42.648;23.270;2023-03-23T14:26:44;14.40;15.50
1021;DHT22;499;42.648;23.270;2023-03-23T14:29:13;14.50;15.60
1021;DHT22;499;42.648;23.270;2023-03-23T14:31:41;14.60;15.30
1021;DHT22;499;42.648;23.270;2023-03-23T14:34:14;14.50;15.20
1021;DHT22;499;42.648;23.270;2023-03-23T14:36:43;14.50;16.10
1021;DHT22;499;42.648;23.270;2023-03-23T14:39:17;14.40;15.40
1021;DHT22;499;42.648;23.270;2023-03-23T14:41:45;14.40;15.40
1021;DHT22;499;42.648;23.270;2023-03-23T14:44:15;14.40;15.50
1021;DHT22;499;42.648;23.270;2023-03-23T14:46:44;14.40;15.20
1021;DHT22;499;42.648;23.270;2023-03-23T14:49:14;14.40;15.80
1021;DHT22;499;42.648;23.270;2023-03-23T14:51:48;14.50;15.70
1021;DHT22;499;42.648;23.270;2023-03-23T14:54:21;14.60;15.10
1021;DHT22;499;42.648;23.270;2023-03-23T14:56:50;14.50;16.00
1021;DHT22;499;42.648;23.270;2023-03-23T14:59:17;14.60;15.60
1021;DHT22;499;42.648;23.270;2023-03-23T15:01:46;14.50;16.10
1021;DHT22;499;42.648;23.270;2023-03-23T15:04:16;14.50;16.40
1021;DHT22;499;42.648;23.270;2023-03-23T15:06:48;14.40;16.30
1021;DHT22;499;42.648;23.270;2023-03-23T15:09:18;14.50;15.70
1021;DHT22;499;42.648;23.270;2023-03-23T15:11:53;14.60;16.60
1021;DHT22;499;42.648;23.270;2023-03-23T15:14:23;14.50;16.00
1021;DHT22;499;42.648;23.270;2023-03-23T15:16:52;14.60;16.10
1021;DHT22;499;42.648;23.270;2023-03-23T15:19:23;14.60;15.30
1021;DHT22;499;42.648;23.270;2023-03-23T15:21:54;14.70;14.90
1021;DHT22;499;42.648;23.270;2023-03-23T15:24:33;14.80;15.00
1021;DHT22;499;42.648;23.270;2023-03-23T15:27:11;14.60;15.70
1021;DHT22;499;42.648;23.270;2023-03-23T15:29:49;14.60;16.10
1021;DHT22;499;42.648;23.270;2023-03-23T15:32:24;14.40;16.10
1021;DHT22;499;42.648;23.270;2023-03-23T15:34:52;14.40;16.50
1021;DHT22;499;42.648;23.270;2023-03-23T15:37:24;14.20;16.80
1021;DHT22;499;42.648;23.270;2023-03-23T15:39:52;14.20;17.10
1021;DHT22;499;42.648;23.270;2023-03-23T15:42:22;14.20;16.60
1021;DHT22;499;42.648;23.270;2023-03-23T15:45:02;14.10;16.90
1021;DHT22;499;42.648;23.270;2023-03-23T15:47:43;14.10;17.00
1021;DHT22;499;42.648;23.270;2023-03-23T15:50:13;13.90;17.20
1021;DHT22;499;42.648;23.270;2023-03-23T15:52:43;13.80;17.50
1021;DHT22;499;42.648;23.270;2023-03-23T15:55:21;13.80;17.60
1021;DHT22;499;42.648;23.270;2023-03-23T15:57:48;13.80;17.90
1021;DHT22;499;42.648;23.270;2023-03-23T16:00:17;13.70;17.90
1021;DHT22;499;42.648;23.270;2023-03-23T16:02:45;13.70;18.00
1021;DHT22;499;42.648;23.270;2023-03-23T16:05:13;13.60;18.40
1021;DHT22;499;42.648;23.270;2023-03-23T16:07:42;13.60;18.60
1021;DHT22;499;42.648;23.270;2023-03-23T16:10:15;13.50;18.70
1021;DHT22;499;42.648;23.270;2023-03-23T16:12:43;13.40;19.20
1021;DHT22;499;42.648;23.270;2023-03-23T16:15:10;13.30;19.40
1021;DHT22;499;42.648;23.270;2023-03-23T16:17:37;13.30;19.50
1021;DHT22;499;42.648;23.270;2023-03-23T16:20:11;13.20;19.50
1021;DHT22;499;42.648;23.270;2023-03-23T16:22:39;13.10;19.60
1021;DHT22;499;42.648;23.270;2023-03-23T16:25:08;12.90;20.00
1021;DHT22;499;42.648;23.270;2023-03-23T16:27:36;12.80;20.50
1021;DHT22;499;42.648;23.270;2023-03-23T16:30:12;12.50;21.10
1021;DHT22;499;42.648;23.270;2023-03-23T16:32:40;12.30;21.50
1021;DHT22;499;42.648;23.270;2023-03-23T16:35:08;12.20;21.90
1021;DHT22;499;42.648;23.270;2023-03-23T16:37:35;12.00;22.80
1021;DHT22;499;42.648;23.270;2023-03-23T16:40:03;11.70;23.50
1021;DHT22;499;42.648;23.270;2023-03-23T16:42:32;11.60;24.10
1021;DHT22;499;42.648;23.270;2023-03-23T16:44:59;11.30;24.40
1021;DHT22;499;42.648;23.270;2023-03-23T16:47:26;11.10;25.50
1021;DHT22;499;42.648;23.270;2023-03-23T16:49:53;10.80;25.80
1021;DHT22;499;42.648;23.270;2023-03-23T16:52:20;10.70;26.30
1021;DHT22;499;42.648;23.270;2023-03-23T16:54:47;10.60;26.90
1021;DHT22;499;42.648;23.270;2023-03-23T16:57:14;10.50;26.90
1021;DHT22;499;42.648;23.270;2023-03-23T16:59:43;10.40;27.20
1021;DHT22;499;42.648;23.270;2023-03-23T17:02:11;10.30;27.30
1021;DHT22;499;42.648;23.270;2023-03-23T17:04:42;10.20;27.20
1021;DHT22;499;42.648;23.270;2023-03-23T17:07:09;10.10;27.80
1021;DHT22;499;42.648;23.270;2023-03-23T17:09:37;10.00;27.90
1021;DHT22;499;42.648;23.270;2023-03-23T17:12:05;9.90;28.70
1021;DHT22;499;42.648;23.270;2023-03-23T17:14:32;9.80;28.90
1021;DHT22;499;42.648;23.270;2023-03-23T17:17:00;9.70;29.00
1021;DHT22;499;42.648;23.270;2023-03-23T17:19:27;9.80;29.30
1021;DHT22;499;42.648;23.270;2023-03-23T17:21:55;9.70;29.50
1021;DHT22;499;42.648;23.270;2023-03-23T17:24:22;9.60;30.00
1021;DHT22;499;42.648;23.270;2023-03-23T17:26:49;9.60;29.90
1021;DHT22;499;42.648;23.270;2023-03-23T17:29:16;9.60;29.80
1021;DHT22;499;42.648;23.270;2023-03-23T17:31:43;9.40;30.10
1021;DHT22;499;42.648;23.270;2023-03-23T17:34:11;9.40;30.00
1021;DHT22;499;42.648;23.270;2023-03-23T17:36:38;9.40;30.50